createdAt,value
2019-03-01T00:01:42.618Z,93834.37
2019-03-01T00:04:14.743Z,93816.88
2019-03-01T00:06:52.628Z,93821.12
2019-03-01T00:09:42.444Z,93807.91
2019-03-01T00:12:41.580Z,93807.88
2019-03-01T00:15:43.611Z,93811.53
2019-03-01T00:18:21.182Z,93803.38
2019-03-01T00:21:07.686Z,93814.56
2019-03-01T00:23:39.549Z,93816.11
2019-03-01T00:26:14.377Z,93806.95
2019-03-01T00:28:47.096Z,93804.73
2019-03-01T00:31:21.717Z,93810.32
2019-03-01T00:34:05.388Z,93813.60
2019-03-01T00:36:53.814Z,93811.80
2019-03-01T00:39:37.237Z,93802.55
2019-03-01T00:42:26.906Z,93799.18
2019-03-01T00:44:55.755Z,93797.07
2019-03-01T00:47:24.596Z,93794.59
2019-03-01T00:49:53.438Z,93784.81
2019-03-01T00:52:22.351Z,93772.86
2019-03-01T00:54:51.385Z,93790.31
2019-03-01T00:57:20.224Z,93776.77
2019-03-01T00:59:49.056Z,93775.91
2019-03-01T01:02:17.923Z,93765.94
2019-03-01T01:04:46.773Z,93767.96
2019-03-01T01:07:15.610Z,93755.73
2019-03-01T01:09:44.466Z,93758.18
2019-03-01T01:12:13.293Z,93750.95
2019-03-01T01:14:42.205Z,93747.10
2019-03-01T01:17:11.094Z,93751.14
2019-03-01T01:19:39.963Z,93734.01
2019-03-01T01:22:08.824Z,93732.46
2019-03-01T01:24:37.661Z,93735.97
2019-03-01T01:27:06.488Z,93745.70
2019-03-01T01:29:35.377Z,93744.01
2019-03-01T01:32:04.224Z,93749.79
2019-03-01T01:34:33.057Z,93749.25
2019-03-01T01:37:01.897Z,93746.70
2019-03-01T01:39:30.774Z,93750.87
2019-03-01T01:41:59.620Z,93753.08
2019-03-01T01:44:28.450Z,93761.83
2019-03-01T01:46:57.275Z,93737.47
2019-03-01T01:49:26.115Z,93751.06
2019-03-01T01:51:54.937Z,93741.70
2019-03-01T01:54:23.758Z,93752.67
2019-03-01T01:56:52.616Z,93765.60
2019-03-01T01:59:21.431Z,93765.09
2019-03-01T02:01:51.344Z,93758.62
2019-03-01T02:04:20.173Z,93758.17
2019-03-01T02:06:49.004Z,93759.19
2019-03-01T02:09:21.241Z,93766.30
2019-03-01T02:11:50.270Z,93757.34
2019-03-01T02:14:19.084Z,93767.46
2019-03-01T02:16:47.934Z,93762.36
2019-03-01T02:19:16.822Z,93764.11
2019-03-01T02:21:45.669Z,93763.27
2019-03-01T02:24:14.560Z,93762.47
2019-03-01T02:26:43.389Z,93764.08
2019-03-01T02:29:12.240Z,93757.74
2019-03-01T02:31:44.184Z,93763.42
2019-03-01T02:34:13.029Z,93747.73
2019-03-01T02:36:41.871Z,93745.08
2019-03-01T02:39:10.912Z,93731.67
2019-03-01T02:41:39.725Z,93738.33
2019-03-01T02:44:08.672Z,93737.05
2019-03-01T02:46:37.575Z,93739.48
2019-03-01T02:49:06.406Z,93743.11
2019-03-01T02:51:35.236Z,93738.67
2019-03-01T02:54:04.155Z,93730.38
2019-03-01T02:56:32.996Z,93734.29
2019-03-01T02:59:01.882Z,93736.70
2019-03-01T03:01:30.781Z,93743.58
2019-03-01T03:03:59.604Z,93742.70
2019-03-01T03:06:39.129Z,93744.99
2019-03-01T03:09:08.782Z,93750.77
2019-03-01T03:11:37.736Z,93743.62
2019-03-01T03:14:06.572Z,93751.09
2019-03-01T03:16:35.399Z,93754.98
2019-03-01T03:19:04.234Z,93756.85
2019-03-01T03:21:33.073Z,93761.71
2019-03-01T03:24:01.929Z,93761.45
2019-03-01T03:26:30.826Z,93764.94
2019-03-01T03:28:59.677Z,93764.98
2019-03-01T03:31:28.506Z,93767.62
2019-03-01T03:33:57.373Z,93788.64
2019-03-01T03:36:26.269Z,93788.05
2019-03-01T03:38:55.155Z,93777.59
2019-03-01T03:41:23.987Z,93789.91
2019-03-01T03:43:52.847Z,93786.27
2019-03-01T03:46:21.666Z,93797.58
2019-03-01T03:48:50.518Z,93795.30
2019-03-01T03:51:19.348Z,93781.66
2019-03-01T03:53:48.181Z,93786.25
2019-03-01T03:56:17.023Z,93784.09
2019-03-01T03:58:46.111Z,93782.68
2019-03-01T04:01:14.950Z,93756.87
2019-03-01T04:03:43.853Z,93778.09
2019-03-01T04:06:12.821Z,93788.06
2019-03-01T04:08:41.715Z,93772.06
2019-03-01T04:11:10.561Z,93775.04
2019-03-01T04:13:39.453Z,93771.68
2019-03-01T04:16:08.290Z,93770.47
2019-03-01T04:18:37.099Z,93772.86
2019-03-01T04:21:05.964Z,93766.30
2019-03-01T04:23:34.769Z,93774.34
2019-03-01T04:26:03.643Z,93778.80
2019-03-01T04:28:32.493Z,93778.86
2019-03-01T04:31:02.978Z,93775.83
2019-03-01T04:33:31.864Z,93780.88
2019-03-01T04:36:00.693Z,93770.66
2019-03-01T04:38:29.544Z,93769.22
2019-03-01T04:40:58.403Z,93751.01
2019-03-01T04:43:27.223Z,93765.03
2019-03-01T04:45:56.126Z,93770.31
2019-03-01T04:48:24.964Z,93777.52
2019-03-01T04:50:53.777Z,93789.87
2019-03-01T04:53:22.712Z,93785.83
2019-03-01T04:55:51.536Z,93767.67
2019-03-01T04:58:20.349Z,93772.01
2019-03-01T05:00:49.188Z,93780.21
2019-03-01T05:03:18.020Z,93770.73
2019-03-01T05:05:46.894Z,93768.11
2019-03-01T05:08:15.708Z,93770.60
2019-03-01T05:10:44.552Z,93760.63
2019-03-01T05:13:13.387Z,93763.20
2019-03-01T05:15:42.237Z,93760.50
2019-03-01T05:18:11.087Z,93761.35
2019-03-01T05:20:39.912Z,93759.89
2019-03-01T05:23:08.768Z,93768.63
2019-03-01T05:25:37.672Z,93768.76
2019-03-01T05:28:06.510Z,93761.23
2019-03-01T05:30:35.347Z,93775.52
2019-03-01T05:33:04.168Z,93769.24
2019-03-01T05:35:33.028Z,93774.05
2019-03-01T05:38:01.878Z,93772.78
2019-03-01T05:40:30.712Z,93772.13
2019-03-01T05:42:59.605Z,93786.26
2019-03-01T05:45:32.172Z,93785.77
2019-03-01T05:48:00.998Z,93780.87
2019-03-01T05:50:29.856Z,93789.77
2019-03-01T05:52:58.675Z,93795.95
2019-03-01T05:55:27.512Z,93791.36
2019-03-01T05:58:22.012Z,93783.98
2019-03-01T06:00:52.556Z,93797.98
2019-03-01T06:03:42.209Z,93803.69
2019-03-01T06:06:29.073Z,93808.39
2019-03-01T06:09:27.188Z,93807.33
2019-03-01T06:12:27.891Z,93807.94
2019-03-01T06:15:31.522Z,93805.73
2019-03-01T06:18:19.793Z,93820.26
2019-03-01T06:21:03.412Z,93825.20
2019-03-01T06:23:38.229Z,93824.53
2019-03-01T06:26:31.431Z,93831.55
2019-03-01T06:29:14.926Z,93832.89
2019-03-01T06:32:01.604Z,93833.67
2019-03-01T06:34:39.174Z,93831.95
2019-03-01T06:37:27.422Z,93832.70
2019-03-01T06:40:12.360Z,93827.87
2019-03-01T06:43:01.411Z,93832.44
2019-03-01T06:45:51.034Z,93826.59
2019-03-01T06:48:21.450Z,93829.81
2019-03-01T06:50:51.858Z,93832.03
2019-03-01T06:53:20.835Z,93841.91
2019-03-01T06:55:49.678Z,93839.06
2019-03-01T06:58:20.864Z,93843.52
2019-03-01T07:00:51.625Z,93835.02
2019-03-01T07:03:20.491Z,93827.73
2019-03-01T07:05:49.334Z,93834.95
2019-03-01T07:08:18.364Z,93828.97
2019-03-01T07:10:47.443Z,93822.88
2019-03-01T07:13:16.326Z,93846.21
2019-03-01T07:15:45.204Z,93825.06
2019-03-01T07:18:14.384Z,93830.31
2019-03-01T07:20:43.301Z,93822.67
2019-03-01T07:23:12.160Z,93824.06
2019-03-01T07:25:42.483Z,93825.92
2019-03-01T07:28:13.207Z,93812.28
2019-03-01T07:30:42.111Z,93809.77
2019-03-01T07:33:10.948Z,93807.67
2019-03-01T07:35:39.914Z,93813.93
2019-03-01T07:38:08.937Z,93800.28
2019-03-01T07:40:37.968Z,93805.69
2019-03-01T07:43:07.755Z,93803.21
2019-03-01T07:45:39.921Z,93807.45
2019-03-01T07:48:08.844Z,93820.52
2019-03-01T07:50:37.690Z,93814.84
2019-03-01T07:53:06.889Z,93804.91
2019-03-01T07:55:35.745Z,93817.72
2019-03-01T07:58:04.842Z,93808.30
2019-03-01T08:00:33.906Z,93816.75
2019-03-01T08:03:02.815Z,93788.78
2019-03-01T08:05:32.220Z,93811.75
2019-03-01T08:08:03.486Z,93807.55
2019-03-01T08:10:31.737Z,93811.50
2019-03-01T08:13:00.562Z,93816.73
2019-03-01T08:15:29.491Z,93791.44
2019-03-01T08:18:00.600Z,93811.37
2019-03-01T08:20:30.387Z,93822.78
2019-03-01T08:23:00.832Z,93823.52
2019-03-01T08:25:30.673Z,93821.89
2019-03-01T08:27:59.573Z,93816.55
2019-03-01T08:30:28.468Z,93811.92
2019-03-01T08:32:57.427Z,93822.75
2019-03-01T08:35:28.345Z,93826.05
2019-03-01T08:37:56.911Z,93824.09
2019-03-01T08:40:25.979Z,93811.53
2019-03-01T08:42:54.907Z,93826.17
2019-03-01T08:45:23.981Z,93830.69
2019-03-01T08:47:55.414Z,93837.52
2019-03-01T08:50:23.409Z,93825.53
2019-03-01T08:52:52.360Z,93846.80
2019-03-01T08:55:30.077Z,93844.53
2019-03-01T08:58:02.857Z,93845.92
2019-03-01T09:00:41.586Z,93857.84
2019-03-01T09:03:22.984Z,93844.03
2019-03-01T09:05:52.125Z,93841.50
2019-03-01T09:08:21.433Z,93837.61
2019-03-01T09:10:50.902Z,93841.92
2019-03-01T09:13:19.776Z,93842.80
2019-03-01T09:15:49.463Z,93858.05
2019-03-01T09:18:19.468Z,93816.84
2019-03-01T09:20:48.364Z,93844.45
2019-03-01T09:23:24.353Z,93847.12
2019-03-01T09:25:49.787Z,93845.83
2019-03-01T09:28:18.915Z,93847.78
2019-03-01T09:30:47.853Z,93841.40
2019-03-01T09:33:17.279Z,93847.64
2019-03-01T09:35:52.322Z,93849.50
2019-03-01T09:38:21.363Z,93844.19
2019-03-01T09:40:50.433Z,93844.39
2019-03-01T09:43:19.400Z,93838.56
2019-03-01T09:45:48.859Z,93835.08
2019-03-01T09:48:19.201Z,93831.47
2019-03-01T09:50:48.169Z,93831.83
2019-03-01T09:53:17.166Z,93829.47
2019-03-01T09:55:46.171Z,93831.90
2019-03-01T09:58:15.149Z,93823.23
2019-03-01T10:00:56.158Z,93833.34
2019-03-01T10:03:23.523Z,93839.73
2019-03-01T10:05:52.390Z,93846.75
2019-03-01T10:08:22.878Z,93822.20
2019-03-01T10:10:51.777Z,93831.24
2019-03-01T10:13:20.612Z,93827.16
2019-03-01T10:15:49.323Z,93815.32
2019-03-01T10:18:18.115Z,93807.70
2019-03-01T10:20:46.860Z,93807.88
2019-03-01T10:23:15.571Z,93791.39
2019-03-01T10:25:44.286Z,93803.16
2019-03-01T10:28:13.120Z,93804.78
2019-03-01T10:30:41.858Z,93806.66
2019-03-01T10:33:10.654Z,93806.50
2019-03-01T10:35:39.358Z,93798.93
2019-03-01T10:38:08.134Z,93795.77
2019-03-01T10:40:37.052Z,93793.10
2019-03-01T10:43:05.825Z,93789.13
2019-03-01T10:45:34.584Z,93783.94
2019-03-01T10:48:04.735Z,93792.77
2019-03-01T10:50:33.439Z,93783.05
2019-03-01T10:53:04.670Z,93772.50
2019-03-01T10:55:33.473Z,93769.64
2019-03-01T10:58:02.163Z,93771.91
2019-03-01T11:00:32.420Z,93769.33
2019-03-01T11:03:01.125Z,93762.17
2019-03-01T11:05:30.020Z,93762.93
2019-03-01T11:07:58.826Z,93764.20
2019-03-01T11:10:32.773Z,93757.45
2019-03-01T11:13:01.660Z,93762.72
2019-03-01T11:15:30.607Z,93750.86
2019-03-01T11:17:59.410Z,93752.10
2019-03-01T11:20:28.366Z,93750.22
2019-03-01T11:22:58.570Z,93747.53
2019-03-01T11:25:27.331Z,93740.37
2019-03-01T11:27:56.321Z,93739.20
2019-03-01T11:30:36.056Z,93747.42
2019-03-01T11:33:05.026Z,93742.44
2019-03-01T11:35:33.719Z,93739.22
2019-03-01T11:38:02.393Z,93731.38
2019-03-01T11:40:36.069Z,93727.35
2019-03-01T11:43:05.502Z,93731.86
2019-03-01T11:45:34.406Z,93723.14
2019-03-01T11:48:03.788Z,93719.88
2019-03-01T11:50:32.531Z,93725.72
2019-03-01T11:53:01.263Z,93720.80
2019-03-01T11:55:30.061Z,93737.07
2019-03-01T11:57:58.754Z,93714.84
2019-03-01T12:00:28.851Z,93719.16
2019-03-01T12:02:57.542Z,93729.81
2019-03-01T12:05:26.227Z,93714.48
2019-03-01T12:07:54.962Z,93724.09
2019-03-01T12:10:31.497Z,93711.19
2019-03-01T12:13:00.411Z,93713.67
2019-03-01T12:15:29.266Z,93712.11
2019-03-01T12:17:57.993Z,93683.89
2019-03-01T12:20:29.336Z,93697.16
2019-03-01T12:22:58.760Z,93711.61
2019-03-01T12:25:28.231Z,93699.30
2019-03-01T12:27:56.896Z,93696.15
2019-03-01T12:30:26.680Z,93698.50
2019-03-01T12:32:55.428Z,93689.15
2019-03-01T12:35:24.218Z,93689.31
2019-03-01T12:37:53.079Z,93679.84
2019-03-01T12:40:29.110Z,93679.40
2019-03-01T12:42:57.769Z,93678.38
2019-03-01T12:45:26.533Z,93680.88
2019-03-01T12:47:55.237Z,93682.36
2019-03-01T12:50:24.053Z,93678.77
2019-03-01T12:52:52.833Z,93680.25
2019-03-01T12:55:31.313Z,93670.91
2019-03-01T12:58:00.043Z,93677.05
2019-03-01T13:00:31.707Z,93666.91
2019-03-01T13:03:00.452Z,93670.55
2019-03-01T13:05:30.354Z,93668.09
2019-03-01T13:07:59.425Z,93642.36
2019-03-01T13:10:36.790Z,93658.09
2019-03-01T13:13:08.140Z,93669.31
2019-03-01T13:15:35.026Z,93655.45
2019-03-01T13:18:04.950Z,93650.02
2019-03-01T13:20:36.945Z,93649.06
2019-03-01T13:23:05.793Z,93644.13
2019-03-01T13:25:34.809Z,93648.78
2019-03-01T13:28:03.484Z,93655.88
2019-03-01T13:30:35.708Z,93637.91
2019-03-01T13:33:05.377Z,93639.68
2019-03-01T13:35:37.970Z,93648.15
2019-03-01T13:38:06.649Z,93648.35
2019-03-01T13:40:35.375Z,93641.00
2019-03-01T13:43:10.046Z,93639.59
2019-03-01T13:45:40.378Z,93639.78
2019-03-01T13:48:09.089Z,93632.83
2019-03-01T13:50:38.343Z,93628.83
2019-03-01T13:53:08.379Z,93632.22
2019-03-01T13:55:37.263Z,93625.50
2019-03-01T13:58:06.169Z,93633.92
2019-03-01T14:00:35.362Z,93634.19
2019-03-01T14:03:04.534Z,93623.14
2019-03-01T14:05:33.258Z,93618.12
2019-03-01T14:08:08.663Z,93619.94
2019-03-01T14:10:32.437Z,93601.92
2019-03-01T14:13:01.130Z,93597.63
2019-03-01T14:15:30.111Z,93593.16
2019-03-01T14:18:01.286Z,93604.65
2019-03-01T14:20:29.398Z,93591.53
2019-03-01T14:22:58.128Z,93595.39
2019-03-01T14:25:26.829Z,93598.03
2019-03-01T14:27:55.500Z,93597.73
2019-03-01T14:30:30.257Z,93587.52
2019-03-01T14:32:58.810Z,93590.23
2019-03-01T14:35:27.794Z,93590.63
2019-03-01T14:37:56.473Z,93588.39
2019-03-01T14:40:25.164Z,93581.74
2019-03-01T14:42:53.873Z,93579.78
2019-03-01T14:45:31.207Z,93587.48
2019-03-01T14:48:01.137Z,93584.33
2019-03-01T14:50:33.809Z,93589.04
2019-03-01T14:53:01.802Z,93579.94
2019-03-01T14:55:37.031Z,93580.03
2019-03-01T14:58:08.635Z,93574.14
2019-03-01T15:00:49.626Z,93580.91
2019-03-01T15:03:17.361Z,93576.14
2019-03-01T15:05:46.658Z,93583.09
2019-03-01T15:08:15.363Z,93574.61
2019-03-01T15:10:44.351Z,93577.55
2019-03-01T15:13:13.246Z,93582.08
2019-03-01T15:15:42.070Z,93587.28
2019-03-01T15:18:13.907Z,93589.48
2019-03-01T15:20:42.615Z,93590.39
2019-03-01T15:23:11.373Z,93589.78
2019-03-01T15:25:40.042Z,93550.80
2019-03-01T15:28:08.851Z,93587.25
2019-03-01T15:30:37.556Z,93598.19
2019-03-01T15:33:08.519Z,93595.01
2019-03-01T15:35:39.776Z,93594.78
2019-03-01T15:38:07.110Z,93587.82
2019-03-01T15:40:35.894Z,93595.88
2019-03-01T15:43:04.564Z,93599.04
2019-03-01T15:45:33.426Z,93602.59
2019-03-01T15:48:03.112Z,93607.49
2019-03-01T15:50:32.684Z,93612.71
2019-03-01T15:53:01.379Z,93613.69
2019-03-01T15:55:30.039Z,93612.56
2019-03-01T15:57:58.730Z,93617.52
2019-03-01T16:00:29.432Z,93611.28
2019-03-01T16:02:57.954Z,93607.70
2019-03-01T16:05:27.084Z,93606.05
2019-03-01T16:07:55.768Z,93613.44
2019-03-01T16:10:24.463Z,93612.69
2019-03-01T16:12:53.119Z,93623.95
2019-03-01T16:15:21.823Z,93622.27
2019-03-01T16:17:50.556Z,93616.37
2019-03-01T16:20:20.443Z,93618.56
2019-03-01T16:22:51.106Z,93620.31
2019-03-01T16:25:21.567Z,93622.77
2019-03-01T16:27:50.775Z,93622.09
2019-03-01T16:30:21.810Z,93627.02
2019-03-01T16:32:50.830Z,93623.86
2019-03-01T16:35:22.882Z,93629.56
2019-03-01T16:37:57.982Z,93638.67
2019-03-01T16:40:26.637Z,93642.17
2019-03-01T16:42:55.325Z,93635.05
2019-03-01T16:45:24.101Z,93630.69
2019-03-01T16:47:52.777Z,93648.93
2019-03-01T16:50:21.696Z,93648.66
2019-03-01T16:52:50.396Z,93643.20
2019-03-01T16:55:24.421Z,93644.05
2019-03-01T16:57:52.345Z,93648.33
2019-03-01T17:00:23.649Z,93642.30
2019-03-01T17:03:06.703Z,93644.06
2019-03-01T17:05:35.671Z,93644.70
2019-03-01T17:08:06.146Z,93636.17
2019-03-01T17:10:35.051Z,93645.95
2019-03-01T17:13:03.721Z,93646.91
2019-03-01T17:15:32.404Z,93649.78
2019-03-01T17:18:01.100Z,93653.58
2019-03-01T17:20:30.085Z,93660.27
2019-03-01T17:22:59.797Z,93654.86
2019-03-01T17:25:29.146Z,93656.80
2019-03-01T17:27:57.825Z,93660.89
2019-03-01T17:30:29.330Z,93668.23
2019-03-01T17:32:58.011Z,93657.50
2019-03-01T17:35:26.693Z,93664.73
2019-03-01T17:37:55.384Z,93661.41
2019-03-01T17:40:24.079Z,93658.83
2019-03-01T17:42:53.172Z,93664.83
2019-03-01T17:45:26.779Z,93667.47
2019-03-01T17:47:55.617Z,93665.97
2019-03-01T17:50:24.346Z,93667.19
2019-03-01T17:52:53.008Z,93666.22
2019-03-01T17:55:30.517Z,93667.25
2019-03-01T17:57:59.180Z,93662.45
2019-03-01T18:00:40.044Z,93665.34
2019-03-01T18:03:08.720Z,93668.45
2019-03-01T18:05:40.603Z,93663.69
2019-03-01T18:08:07.854Z,93675.53
2019-03-01T18:10:36.503Z,93677.02
2019-03-01T18:13:05.219Z,93679.23
2019-03-01T18:15:33.889Z,93678.88
2019-03-01T18:18:02.563Z,93674.50
2019-03-01T18:20:33.868Z,93667.84
2019-03-01T18:23:02.201Z,93673.73
2019-03-01T18:25:32.137Z,93668.67
2019-03-01T18:28:00.846Z,93668.39
2019-03-01T18:30:31.697Z,93664.07
2019-03-01T18:33:00.353Z,93664.78
2019-03-01T18:35:29.031Z,93661.45
2019-03-01T18:37:57.708Z,93669.81
2019-03-01T18:40:26.377Z,93669.69
2019-03-01T18:42:55.061Z,93669.17
2019-03-01T18:45:25.333Z,93675.71
2019-03-01T18:47:54.023Z,93672.55
2019-03-01T18:50:27.610Z,93668.86
2019-03-01T18:52:56.118Z,93672.34
2019-03-01T18:55:24.815Z,93674.27
2019-03-01T18:57:53.536Z,93674.75
2019-03-01T19:00:32.521Z,93678.95
2019-03-01T19:03:04.360Z,93677.21
2019-03-01T19:05:31.990Z,93675.84
2019-03-01T19:08:04.388Z,93675.91
2019-03-01T19:10:31.496Z,93678.00
2019-03-01T19:13:00.159Z,93676.05
2019-03-01T19:15:28.840Z,93677.31
2019-03-01T19:17:57.817Z,93674.64
2019-03-01T19:20:44.241Z,93678.12
2019-03-01T19:23:13.016Z,93678.12
2019-03-01T19:25:41.823Z,93683.24
2019-03-01T19:28:10.472Z,93683.63
2019-03-01T19:30:39.140Z,93684.13
2019-03-01T19:33:07.831Z,93679.49
2019-03-01T19:35:36.533Z,93686.28
2019-03-01T19:38:05.200Z,93683.84
2019-03-01T19:40:33.867Z,93685.30
2019-03-01T19:43:02.572Z,93678.28
2019-03-01T19:45:31.238Z,93680.02
2019-03-01T19:48:03.205Z,93678.31
2019-03-01T19:50:30.870Z,93676.83
2019-03-01T19:52:59.555Z,93665.01
2019-03-01T19:55:28.233Z,93677.09
2019-03-01T19:57:56.916Z,93679.31
2019-03-01T20:00:33.336Z,93681.42
2019-03-01T20:03:02.056Z,93677.97
2019-03-01T20:05:36.263Z,93679.59
2019-03-01T20:08:04.933Z,93643.75
2019-03-01T20:10:33.610Z,93685.13
2019-03-01T20:13:02.332Z,93680.02
2019-03-01T20:15:31.596Z,93673.42
2019-03-01T20:18:00.280Z,93674.37
2019-03-01T20:20:33.121Z,93675.05
2019-03-01T20:23:00.572Z,93670.94
2019-03-01T20:25:29.258Z,93669.55
2019-03-01T20:27:57.937Z,93663.39
2019-03-01T20:30:30.556Z,93673.92
2019-03-01T20:32:59.432Z,93665.13
2019-03-01T20:35:28.264Z,93664.91
2019-03-01T20:38:00.381Z,93668.18
2019-03-01T20:40:28.257Z,93664.11
2019-03-01T20:43:00.470Z,93661.82
2019-03-01T20:45:31.445Z,93664.36
2019-03-01T20:48:00.291Z,93659.80
2019-03-01T20:50:28.978Z,93663.41
2019-03-01T20:52:57.748Z,93660.58
2019-03-01T20:55:26.427Z,93667.28
2019-03-01T20:57:55.201Z,93661.61
2019-03-01T21:00:29.781Z,93667.50
2019-03-01T21:02:58.409Z,93654.83
2019-03-01T21:05:28.969Z,93655.69
2019-03-01T21:07:57.492Z,93654.83
2019-03-01T21:10:30.423Z,93659.17
2019-03-01T21:12:59.093Z,93656.55
2019-03-01T21:15:27.774Z,93650.23
2019-03-01T21:17:58.428Z,93657.86
2019-03-01T21:20:26.934Z,93658.63
2019-03-01T21:22:55.593Z,93656.73
2019-03-01T21:25:25.062Z,93655.95
2019-03-01T21:27:53.775Z,93653.75
2019-03-01T21:30:27.054Z,93644.92
2019-03-01T21:32:55.854Z,93642.72
2019-03-01T21:35:24.977Z,93647.30
2019-03-01T21:37:53.713Z,93652.05
2019-03-01T21:40:22.527Z,93657.52
2019-03-01T21:42:52.910Z,93658.95
2019-03-01T21:45:22.727Z,93656.66
2019-03-01T21:47:51.387Z,93657.05
2019-03-01T21:50:20.067Z,93659.53
2019-03-01T21:52:48.740Z,93655.70
2019-03-01T21:55:18.909Z,93653.52
2019-03-01T21:57:47.596Z,93650.80
2019-03-01T22:00:18.576Z,93652.84
2019-03-01T22:02:48.912Z,93654.09
2019-03-01T22:05:17.778Z,93646.31
2019-03-01T22:07:46.446Z,93648.16
2019-03-01T22:10:15.817Z,93648.50
2019-03-01T22:12:44.474Z,93652.67
2019-03-01T22:15:21.660Z,93644.94
2019-03-01T22:17:49.589Z,93637.67
2019-03-01T22:20:18.457Z,93643.55
2019-03-01T22:22:47.123Z,93640.84
2019-03-01T22:25:16.094Z,93633.69
2019-03-01T22:27:44.869Z,93645.37
2019-03-01T22:30:16.207Z,93644.02
2019-03-01T22:32:45.419Z,93647.09
2019-03-01T22:35:14.947Z,93637.88
2019-03-01T22:37:43.626Z,93639.82
2019-03-01T22:40:12.497Z,93636.84
2019-03-01T22:42:41.170Z,93638.20
2019-03-01T22:45:14.927Z,93648.62
2019-03-01T22:47:43.691Z,93638.52
2019-03-01T22:50:14.625Z,93639.73
2019-03-01T22:52:43.396Z,93640.59
2019-03-01T22:55:14.967Z,93637.30
2019-03-01T22:57:44.877Z,93637.16
2019-03-01T23:00:30.373Z,93637.92
2019-03-01T23:02:59.033Z,93638.29
2019-03-01T23:05:27.697Z,93639.55
2019-03-01T23:07:56.752Z,93645.37
2019-03-01T23:10:26.862Z,93645.63
2019-03-01T23:12:55.524Z,93642.80
2019-03-01T23:15:24.186Z,93644.55
2019-03-01T23:17:52.911Z,93640.72
2019-03-01T23:20:26.252Z,93646.00
2019-03-01T23:22:52.113Z,93650.42
2019-03-01T23:25:20.785Z,93647.45
2019-03-01T23:27:49.477Z,93642.39
2019-03-01T23:30:18.323Z,93637.70
2019-03-01T23:32:48.757Z,93637.20
2019-03-01T23:35:18.131Z,93642.12
2019-03-01T23:37:47.652Z,93641.39
2019-03-01T23:40:16.609Z,93644.20
2019-03-01T23:42:45.274Z,93648.47
2019-03-01T23:45:17.446Z,93652.14
2019-03-01T23:47:44.415Z,93650.41
2019-03-01T23:50:13.096Z,93656.81
2019-03-01T23:52:41.771Z,93658.03
2019-03-01T23:55:10.441Z,93650.14
2019-03-01T23:57:41.154Z,93652.20
